createdAt,value
2023-07-18T00:10:48.660Z,101655.59
2023-07-18T00:16:09.909Z,101653.22
2023-07-18T00:21:30.505Z,101668.03
2023-07-18T00:26:51.668Z,101655.09
2023-07-18T00:32:12.399Z,101665.44
2023-07-18T00:37:33.443Z,101654.09
2023-07-18T00:42:53.814Z,101661.84
2023-07-18T00:48:15.360Z,101659.44
2023-07-18T00:53:38.941Z,101660.31
2023-07-18T00:58:59.465Z,101665.66
2023-07-18T01:04:19.699Z,101641.94
2023-07-18T01:09:41.027Z,101649.53
2023-07-18T01:15:01.885Z,101639.88
2023-07-18T01:20:25.094Z,101658.09
2023-07-18T01:25:45.623Z,101666.00
2023-07-18T01:31:06.518Z,101651.25
2023-07-18T01:36:29.614Z,101646.44
2023-07-18T01:41:51.936Z,101658.44
2023-07-18T01:47:13.678Z,101652.59
2023-07-18T01:52:35.703Z,101647.44
2023-07-18T01:57:56.494Z,101655.88
2023-07-18T02:03:17.564Z,101663.25
2023-07-18T02:08:38.325Z,101668.59
2023-07-18T02:13:58.748Z,101658.81
2023-07-18T02:19:20.804Z,101665.50
2023-07-18T02:24:42.203Z,101675.31
2023-07-18T02:30:03.158Z,101668.09
2023-07-18T02:35:29.855Z,101646.13
2023-07-18T02:40:53.254Z,101647.44
2023-07-18T02:46:13.554Z,101657.22
2023-07-18T02:51:34.451Z,101655.69
2023-07-18T02:56:55.156Z,101650.56
2023-07-18T03:02:16.735Z,101647.09
2023-07-18T03:07:37.408Z,101655.00
2023-07-18T03:12:58.779Z,101657.13
2023-07-18T03:18:22.978Z,101636.84
2023-07-18T03:23:44.325Z,101639.19
2023-07-18T03:29:07.170Z,101641.94
2023-07-18T03:34:29.752Z,101647.81
2023-07-18T03:39:50.318Z,101646.13
2023-07-18T03:45:14.233Z,101625.16
2023-07-18T03:50:34.614Z,101632.69
2023-07-18T03:56:02.627Z,101632.69
2023-07-18T04:01:23.031Z,101636.44
2023-07-18T04:06:46.601Z,101633.88
2023-07-18T04:12:08.528Z,101638.63
2023-07-18T04:17:29.425Z,101651.16
2023-07-18T04:22:49.808Z,101662.63
2023-07-18T04:28:10.243Z,101648.69
2023-07-18T04:33:39.307Z,101647.78
2023-07-18T04:38:59.814Z,101658.53
2023-07-18T04:44:20.272Z,101656.59
2023-07-18T04:49:40.758Z,101672.81
2023-07-18T04:55:01.545Z,101662.09
2023-07-18T05:00:22.218Z,101661.69
2023-07-18T05:05:46.104Z,101667.59
2023-07-18T05:11:06.759Z,101687.31
2023-07-18T05:16:27.483Z,101677.09
2023-07-18T05:21:47.949Z,101687.34
2023-07-18T05:27:08.355Z,101692.75
2023-07-18T05:32:29.274Z,101690.47
2023-07-18T05:37:50.206Z,101693.47
2023-07-18T05:43:10.899Z,101689.50
2023-07-18T05:48:31.841Z,101687.50
2023-07-18T05:53:52.553Z,101692.09
2023-07-18T05:59:12.995Z,101688.44
2023-07-18T06:04:36.368Z,101683.56
2023-07-18T06:09:56.880Z,101679.69
2023-07-18T06:15:17.498Z,101691.72
2023-07-18T06:20:40.928Z,101682.66
2023-07-18T06:26:01.643Z,101691.13
2023-07-18T06:31:22.726Z,101695.13
2023-07-18T06:36:45.459Z,101696.00
2023-07-18T06:42:06.906Z,101689.84
2023-07-18T06:47:27.494Z,101683.94
2023-07-18T06:52:48.152Z,101690.06
2023-07-18T06:58:11.798Z,101686.38
2023-07-18T07:03:33.188Z,101677.34
2023-07-18T07:08:53.994Z,101687.38
2023-07-18T07:14:14.655Z,101694.06
2023-07-18T07:19:37.010Z,101686.59
2023-07-18T07:24:58.115Z,101691.38
2023-07-18T07:30:18.818Z,101692.72
2023-07-18T07:35:42.335Z,101689.75
2023-07-18T07:41:03.037Z,101697.78
2023-07-18T07:46:23.373Z,101682.06
2023-07-18T07:51:44.010Z,101692.44
2023-07-18T07:57:04.702Z,101685.09
2023-07-18T08:02:25.504Z,101692.31
2023-07-18T08:07:46.652Z,101684.63
2023-07-18T08:13:07.346Z,101681.00
2023-07-18T08:18:28.397Z,101688.00
2023-07-18T08:23:49.919Z,101686.06
2023-07-18T08:29:10.540Z,101699.09
2023-07-18T08:34:31.446Z,101703.53
2023-07-18T08:39:51.741Z,101692.09
2023-07-18T08:45:16.045Z,101688.44
2023-07-18T08:50:40.058Z,101685.94
2023-07-18T08:56:00.884Z,101700.97
2023-07-18T09:01:21.629Z,101698.25
2023-07-18T09:07:00.368Z,101689.84
2023-07-18T09:12:20.766Z,101689.81
2023-07-18T09:17:41.781Z,101696.06
2023-07-18T09:23:04.355Z,101688.13
2023-07-18T09:28:32.737Z,101690.63
2023-07-18T09:33:55.514Z,101699.13
2023-07-18T09:39:16.020Z,101700.81
2023-07-18T09:44:37.341Z,101699.09
2023-07-18T09:49:57.960Z,101695.88
2023-07-18T09:55:27.973Z,101694.16
2023-07-18T10:00:50.117Z,101697.16
2023-07-18T10:06:14.962Z,101694.38
2023-07-18T10:11:58.902Z,101705.28
2023-07-18T10:17:26.433Z,101707.06
2023-07-18T10:22:49.238Z,101697.16
2023-07-18T10:28:10.301Z,101699.84
2023-07-18T10:33:30.744Z,101692.47
2023-07-18T10:38:53.518Z,101688.31
2023-07-18T10:44:15.902Z,101678.50
2023-07-18T10:49:37.960Z,101690.91
2023-07-18T10:54:59.206Z,101688.72
2023-07-18T11:00:21.190Z,101687.00
2023-07-18T11:05:43.343Z,101687.91
2023-07-18T11:11:05.585Z,101676.91
2023-07-18T11:16:26.442Z,101684.09
2023-07-18T11:21:47.833Z,101677.69
2023-07-18T11:27:20.260Z,101666.03
2023-07-18T11:32:43.105Z,101655.84
2023-07-18T11:38:03.700Z,101667.81
2023-07-18T11:43:30.137Z,101655.50
2023-07-18T11:48:54.957Z,101644.91
2023-07-18T11:54:15.813Z,101650.78
2023-07-18T11:59:36.364Z,101655.09
2023-07-18T12:04:57.025Z,101656.31
2023-07-18T12:10:19.311Z,101670.00
2023-07-18T12:15:40.009Z,101657.84
2023-07-18T12:21:00.857Z,101648.13
2023-07-18T12:26:22.421Z,101657.22
2023-07-18T12:31:46.212Z,101649.06
2023-07-18T12:37:07.637Z,101642.22
2023-07-18T12:42:28.362Z,101650.16
2023-07-18T12:47:49.234Z,101648.41
2023-07-18T12:53:09.951Z,101650.81
2023-07-18T12:58:31.246Z,101637.75
2023-07-18T13:03:51.942Z,101635.22
2023-07-18T13:09:12.817Z,101634.09
2023-07-18T13:14:33.404Z,101649.50
2023-07-18T13:19:54.696Z,101636.34
2023-07-18T13:25:15.859Z,101619.78
2023-07-18T13:30:37.584Z,101617.22
2023-07-18T13:35:59.246Z,101631.91
2023-07-18T13:41:19.783Z,101645.56
2023-07-18T13:46:40.113Z,101624.97
2023-07-18T13:52:00.727Z,101613.88
2023-07-18T13:57:21.174Z,101633.69
2023-07-18T14:02:42.010Z,101610.66
2023-07-18T14:08:04.140Z,101618.38
2023-07-18T14:13:24.761Z,101613.34
2023-07-18T14:18:45.446Z,101602.97
2023-07-18T14:24:06.592Z,101604.03
2023-07-18T14:29:27.114Z,101608.06
2023-07-18T14:34:48.405Z,101596.41
2023-07-18T14:40:09.568Z,101586.56
2023-07-18T14:45:30.095Z,101582.31
2023-07-18T14:50:51.342Z,101579.41
2023-07-18T14:56:11.796Z,101574.06
2023-07-18T15:01:32.499Z,101572.31
2023-07-18T15:06:54.505Z,101575.72
2023-07-18T15:12:14.816Z,101567.28
2023-07-18T15:17:47.728Z,101586.59
2023-07-18T15:23:09.237Z,101572.19
2023-07-18T15:28:30.010Z,101574.75
2023-07-18T15:33:50.666Z,101582.31
2023-07-18T15:39:11.090Z,101580.25
2023-07-18T15:44:31.780Z,101561.28
2023-07-18T15:49:52.622Z,101565.56
2023-07-18T15:55:13.148Z,101564.66
2023-07-18T16:00:34.187Z,101553.97
2023-07-18T16:05:54.752Z,101553.16
2023-07-18T16:11:15.203Z,101541.31
2023-07-18T16:16:35.730Z,101553.84
2023-07-18T16:21:56.212Z,101546.56
2023-07-18T16:27:16.664Z,101531.59
2023-07-18T16:32:37.369Z,101545.13
2023-07-18T16:37:57.782Z,101545.66
2023-07-18T16:43:18.487Z,101530.41
2023-07-18T16:48:39.016Z,101534.38
2023-07-18T16:53:59.782Z,101537.72
2023-07-18T16:59:20.218Z,101525.13
2023-07-18T17:04:41.297Z,101512.78
2023-07-18T17:10:02.839Z,101509.84
2023-07-18T17:15:23.447Z,101511.47
2023-07-18T17:20:44.319Z,101498.84
2023-07-18T17:26:04.823Z,101491.38
2023-07-18T17:31:25.707Z,101503.63
2023-07-18T17:36:51.418Z,101497.31
2023-07-18T17:42:12.119Z,101483.78
2023-07-18T17:47:32.628Z,101482.25
2023-07-18T17:52:53.390Z,101474.13
2023-07-18T17:58:14.235Z,101466.03
2023-07-18T18:03:35.220Z,101476.88
2023-07-18T18:08:55.739Z,101464.78
2023-07-18T18:14:16.459Z,101467.53
2023-07-18T18:19:37.110Z,101463.41
2023-07-18T18:24:57.672Z,101453.03
2023-07-18T18:30:18.139Z,101450.50
2023-07-18T18:43:05.948Z,101428.81
2023-07-18T18:48:27.015Z,101439.63
2023-07-18T18:53:47.482Z,101430.19
2023-07-18T18:59:08.112Z,101441.56
2023-07-18T19:04:28.729Z,101442.72
2023-07-18T19:09:49.832Z,101442.50
2023-07-18T19:15:10.578Z,101450.81
2023-07-18T19:20:31.139Z,101448.19
2023-07-18T19:25:51.734Z,101449.97
2023-07-18T19:31:12.406Z,101460.59
2023-07-18T19:36:34.505Z,101453.72
2023-07-18T19:41:55.046Z,101440.72
2023-07-18T19:47:15.902Z,101455.25
2023-07-18T19:52:36.431Z,101458.31
2023-07-18T19:57:56.905Z,101438.19
2023-07-18T20:03:17.683Z,101431.91
2023-07-18T20:08:38.261Z,101430.19
2023-07-18T20:13:58.988Z,101429.34
2023-07-18T20:19:19.576Z,101418.72
2023-07-18T20:24:40.269Z,101410.00
2023-07-18T20:30:00.737Z,101422.00
2023-07-18T20:35:22.013Z,101424.47
2023-07-18T20:40:43.358Z,101411.69
2023-07-18T20:46:05.226Z,101412.16
2023-07-18T20:51:26.245Z,101414.06
2023-07-18T20:56:46.838Z,101416.75
2023-07-18T21:02:07.942Z,101422.78
2023-07-18T21:07:28.378Z,101417.00
2023-07-18T21:12:49.835Z,101419.25
2023-07-18T21:18:10.163Z,101412.81
2023-07-18T21:23:30.532Z,101419.13
2023-07-18T21:29:03.952Z,101414.66
2023-07-18T21:34:26.053Z,101421.19
2023-07-18T21:39:46.569Z,101428.41
2023-07-18T21:45:07.531Z,101424.16
2023-07-18T21:50:28.091Z,101412.47
2023-07-18T21:55:48.433Z,101412.50
2023-07-18T22:01:09.378Z,101395.00
2023-07-18T22:06:30.029Z,101393.38
2023-07-18T22:11:52.661Z,101395.09
2023-07-18T22:17:13.688Z,101388.91
2023-07-18T22:22:34.478Z,101394.81
2023-07-18T22:27:55.381Z,101391.13
2023-07-18T22:33:16.180Z,101393.69
2023-07-18T22:38:36.864Z,101384.78
2023-07-18T22:43:57.679Z,101394.56
2023-07-18T22:49:18.253Z,101392.47
2023-07-18T22:54:39.830Z,101378.41
2023-07-18T23:00:00.710Z,101386.50
2023-07-18T23:05:21.489Z,101383.53
2023-07-18T23:11:01.085Z,101383.91
2023-07-18T23:16:21.897Z,101383.44
2023-07-18T23:21:42.765Z,101386.59
2023-07-18T23:27:03.237Z,101392.31
2023-07-18T23:32:23.643Z,101381.16
2023-07-18T23:37:44.570Z,101367.91
2023-07-18T23:43:08.068Z,101358.63
2023-07-18T23:48:28.600Z,101339.63
2023-07-18T23:53:48.896Z,101330.59
2023-07-18T23:59:09.600Z,101306.78
